Time;durP1;ratioP1;P1;durP2;ratioP2;P2;SDS_P1;SDS_P2;PMS_P1;PMS_P2;Temp;Humidity;BMP_temperature;BMP_pressure;BME280_temperature;BME280_humidity;BME280_pressure;Samples;Min_cycle;Max_cycle;Signal;HPM_P1;HPM_P2
2022/07/22 07:01:20;;;;;;;;;;;;;;;;;;12935513;22;2234162;-81
2022/07/22 07:06:21;;;;;;;2.28;1.27;;;;;;;;;;12904930;23;19959;-83
2022/07/22 07:11:22;;;;;;;3.33;1.48;;;;;;;;;;12897154;23;19999;-82
2022/07/22 07:16:23;;;;;;;4.10;1.88;;;;;;;;;;12885132;23;20016;-81
2022/07/22 07:21:25;;;;;;;4.85;1.25;;;;;;;;;;12877023;23;20001;-83
2022/07/22 07:26:26;;;;;;;4.15;1.75;;;;;;;;;;12875007;23;20012;-79
2022/07/22 07:31:27;;;;;;;2.95;1.83;;;;;;;;;;12867219;23;20050;-80
2022/07/22 07:36:28;;;;;;;3.85;1.80;;;;;;;;;;12838453;23;20009;-80
2022/07/22 07:41:29;;;;;;;3.03;1.67;;;;;;;;;;12804340;23;20012;-80
2022/07/22 07:46:30;;;;;;;5.18;1.58;;;;;;;;;;12803317;23;20420;-80
2022/07/22 07:51:31;;;;;;;1.75;1.20;;;;;;;;;;12802977;23;20029;-80
2022/07/22 07:56:32;;;;;;;5.13;1.70;;;;;;;;;;12802508;23;20005;-81
2022/07/22 08:01:33;;;;;;;5.03;1.60;;;;;;;;;;12803350;23;20001;-80
2022/07/22 08:06:34;;;;;;;4.45;1.40;;;;;;;;;;12802740;23;20185;-80
2022/07/22 08:11:35;;;;;;;6.80;1.70;;;;;;;;;;12804127;23;20004;-80
2022/07/22 08:16:36;;;;;;;3.63;1.50;;;;;;;;;;12803569;23;20005;-81
2022/07/22 08:21:37;;;;;;;3.50;1.77;;;;;;;;;;12804322;23;20104;-79
2022/07/22 08:26:38;;;;;;;4.20;1.80;;;;;;;;;;12801747;23;20045;-80
2022/07/22 08:31:39;;;;;;;3.10;1.80;;;;;;;;;;12801768;23;20032;-79
2022/07/22 08:36:41;;;;;;;2.30;1.70;;;;;;;;;;12803802;23;20008;-81
2022/07/22 08:41:42;;;;;;;4.45;1.67;;;;;;;;;;12802226;23;20060;-79
2022/07/22 08:46:44;;;;;;;4.70;2.30;;;;;;;;;;12803072;23;20028;-79
2022/07/22 08:51:45;;;;;;;3.72;2.60;;;;;;;;;;12800602;23;20001;-80
2022/07/22 08:56:47;;;;;;;3.60;2.30;;;;;;;;;;12802525;23;20001;-79
2022/07/22 09:02:01;;;;;;;8.48;2.75;;;;;;;;;;12801508;23;20012;-79
2022/07/22 09:07:02;;;;;;;4.15;3.10;;;;;;;;;;12801522;23;20036;-80
2022/07/22 09:12:04;;;;;;;5.03;2.67;;;;;;;;;;12800000;23;20029;-79
2022/07/22 09:17:07;;;;;;;5.45;2.20;;;;;;;;;;12800881;23;20056;-80
2022/07/22 09:22:09;;;;;;;6.43;2.70;;;;;;;;;;12800862;23;20009;-80
2022/07/22 09:27:10;;;;;;;5.72;2.30;;;;;;;;;;12801714;23;20009;-80
2022/07/22 09:32:11;;;;;;;4.18;2.25;;;;;;;;;;12809999;23;20011;-80
2022/07/22 09:37:13;;;;;;;5.25;2.42;;;;;;;;;;12798470;23;20412;-80
2022/07/22 09:42:16;;;;;;;5.93;2.20;;;;;;;;;;12798099;23;20431;-80
2022/07/22 09:47:29;;;;;;;3.95;2.00;;;;;;;;;;12806650;23;20028;-79
2022/07/22 09:52:31;;;;;;;5.07;2.00;;;;;;;;;;12807451;23;20282;-80
2022/07/22 09:57:32;;;;;;;4.65;1.85;;;;;;;;;;12803226;23;20362;-80
2022/07/22 10:02:59;;;;;;;6.50;2.33;;;;;;;;;;12802046;23;20382;-80
2022/07/22 10:08:01;;;;;;;4.60;1.88;;;;;;;;;;12771686;23;20085;-80
2022/07/22 10:13:03;;;;;;;2.83;2.28;;;;;;;;;;12802078;23;20068;-80
2022/07/22 10:18:06;;;;;;;3.65;2.05;;;;;;;;;;12803467;23;20012;-80
2022/07/22 10:23:09;;;;;;;3.47;1.92;;;;;;;;;;12800116;23;20040;-80
2022/07/22 10:28:20;;;;;;;6.63;2.88;;;;;;;;;;12800153;23;20013;-80
2022/07/22 10:33:22;;;;;;;6.57;3.63;;;;;;;;;;12818309;23;20008;-80
2022/07/22 10:38:23;;;;;;;5.82;3.67;;;;;;;;;;12813654;23;20060;-81
2022/07/22 10:43:27;;;;;;;4.13;3.25;;;;;;;;;;12801054;23;20009;-81
2022/07/22 10:48:37;;;;;;;6.63;4.28;;;;;;;;;;12805888;23;20444;-81
2022/07/22 10:53:56;;;;;;;7.68;3.03;;;;;;;;;;12810880;23;20012;-81
2022/07/22 10:58:58;;;;;;;5.67;2.90;;;;;;;;;;12821048;23;20073;-82
2022/07/22 11:04:38;;;;;;;5.90;3.40;;;;;;;;;;12811887;23;20009;-82
2022/07/22 11:09:39;;;;;;;6.13;3.55;;;;;;;;;;12620469;23;20137;-82
2022/07/22 11:14:40;;;;;;;8.55;4.97;;;;;;;;;;12751805;23;20040;-81
2022/07/22 11:19:41;;;;;;;5.35;4.40;;;;;;;;;;12806420;23;20100;-82
2022/07/22 11:24:43;;;;;;;6.28;4.15;;;;;;;;;;12807168;23;20063;-81
2022/07/22 11:30:06;;;;;;;7.15;4.00;;;;;;;;;;12806485;23;20318;-80
2022/07/22 11:35:14;;;;;;;7.38;4.80;;;;;;;;;;12806544;23;20008;-83
2022/07/22 11:40:15;;;;;;;4.97;4.47;;;;;;;;;;12806665;23;20009;-83
2022/07/22 11:45:16;;;;;;;6.60;4.65;;;;;;;;;;12804951;23;20005;-82
2022/07/22 11:50:17;;;;;;;6.03;4.10;;;;;;;;;;12807082;23;20005;-82
2022/07/22 11:55:18;;;;;;;5.55;4.35;;;;;;;;;;12803063;23;19997;-81
2022/07/22 12:00:19;;;;;;;5.60;3.65;;;;;;;;;;12804147;23;20373;-83
2022/07/22 12:05:21;;;;;;;6.80;4.50;;;;;;;;;;12811007;23;20381;-82
2022/07/22 12:10:22;;;;;;;4.82;3.88;;;;;;;;;;12803764;23;20093;-81
2022/07/22 12:15:23;;;;;;;4.88;3.72;;;;;;;;;;12803523;23;20032;-82
2022/07/22 12:20:27;;;;;;;5.22;4.10;;;;;;;;;;12803703;23;20015;-82
2022/07/22 12:25:28;;;;;;;8.80;6.15;;;;;;;;;;12803991;23;20091;-82
2022/07/22 12:30:29;;;;;;;6.80;5.43;;;;;;;;;;12805566;23;20033;-81
2022/07/22 12:35:30;;;;;;;7.10;6.15;;;;;;;;;;12804865;23;20086;-82
2022/07/22 12:40:31;;;;;;;7.15;5.60;;;;;;;;;;12804998;23;20028;-82
2022/07/22 12:45:34;;;;;;;9.60;8.10;;;;;;;;;;12813948;23;20009;-81
2022/07/22 12:50:42;;;;;;;8.73;6.35;;;;;;;;;;12819496;23;20016;-81
2022/07/22 12:55:54;;;;;;;6.85;5.93;;;;;;;;;;12818146;23;20008;-81
2022/07/22 13:00:56;;;;;;;7.53;6.78;;;;;;;;;;12818053;23;20005;-83
2022/07/22 13:05:58;;;;;;;6.57;5.60;;;;;;;;;;12820560;23;20008;-81
2022/07/22 13:11:00;;;;;;;8.27;6.05;;;;;;;;;;12818604;23;20028;-82
2022/07/22 13:16:01;;;;;;;16.95;15.38;;;;;;;;;;12817054;23;20005;-82
2022/07/22 13:21:02;;;;;;;7.57;6.85;;;;;;;;;;12824706;22;19993;-80
2022/07/22 13:26:04;;;;;;;15.70;13.93;;;;;;;;;;12825399;23;20094;-83
2022/07/22 13:31:05;;;;;;;10.63;9.50;;;;;;;;;;12815810;23;20017;-85
2022/07/22 13:36:06;;;;;;;9.13;8.23;;;;;;;;;;12810695;23;19999;-83
2022/07/22 13:41:16;;;;;;;9.32;8.40;;;;;;;;;;12811067;23;19997;-82
2022/07/22 13:46:18;;;;;;;9.25;7.55;;;;;;;;;;12816407;23;19981;-82
2022/07/22 13:51:19;;;;;;;8.27;7.25;;;;;;;;;;12810294;23;20005;-82
2022/07/22 13:56:20;;;;;;;8.63;7.82;;;;;;;;;;12809857;23;20005;-83
2022/07/22 14:01:21;;;;;;;9.30;7.13;;;;;;;;;;12809681;23;20033;-82
2022/07/22 14:06:22;;;;;;;9.65;7.07;;;;;;;;;;12808806;23;20005;-83
2022/07/22 14:11:23;;;;;;;7.63;6.25;;;;;;;;;;12807228;23;20005;-81
2022/07/22 14:16:34;;;;;;;7.70;6.70;;;;;;;;;;12804576;23;20008;-81
2022/07/22 14:21:35;;;;;;;6.88;6.15;;;;;;;;;;12809243;23;20172;-81
2022/07/22 14:26:37;;;;;;;6.78;6.10;;;;;;;;;;12809134;23;20023;-80
2022/07/22 14:31:38;;;;;;;9.38;6.80;;;;;;;;;;12811077;23;20095;-81
2022/07/22 14:36:39;;;;;;;8.45;7.63;;;;;;;;;;12813884;23;20012;-81
2022/07/22 14:41:40;;;;;;;8.93;8.02;;;;;;;;;;12812504;23;20448;-81
2022/07/22 14:46:41;;;;;;;9.13;7.82;;;;;;;;;;12812046;23;20480;-81
2022/07/22 14:51:42;;;;;;;8.82;7.50;;;;;;;;;;12812286;23;20005;-81
2022/07/22 14:56:43;;;;;;;8.80;7.38;;;;;;;;;;12814293;23;20325;-81
2022/07/22 15:01:44;;;;;;;7.95;7.15;;;;;;;;;;12815556;23;20008;-81
2022/07/22 15:06:46;;;;;;;7.95;6.15;;;;;;;;;;12813569;23;20019;-81
2022/07/22 15:11:47;;;;;;;9.38;5.78;;;;;;;;;;12814772;23;20029;-81
2022/07/22 15:16:48;;;;;;;6.78;6.18;;;;;;;;;;12809828;23;20057;-81
2022/07/22 15:21:49;;;;;;;7.03;6.35;;;;;;;;;;12808439;23;20418;-81
2022/07/22 15:26:50;;;;;;;8.40;6.50;;;;;;;;;;12806583;23;20400;-81
2022/07/22 15:31:51;;;;;;;7.35;6.25;;;;;;;;;;12815240;23;20087;-81
2022/07/22 15:36:52;;;;;;;6.18;5.57;;;;;;;;;;12822775;23;20029;-81
2022/07/22 15:41:53;;;;;;;7.32;5.45;;;;;;;;;;12814310;23;20001;-79
2022/07/22 15:46:54;;;;;;;5.45;4.90;;;;;;;;;;12812594;23;20013;-82
2022/07/22 15:51:56;;;;;;;5.80;4.97;;;;;;;;;;12809874;23;20391;-82
2022/07/22 15:59:31;;;;;;;6.57;4.85;;;;;;;;;;12808730;23;20005;-81
2022/07/22 16:02:18;;;;;;;6.60;4.78;;;;;;;;;;12811088;23;20334;-82
2022/07/22 16:07:19;;;;;;;6.65;4.80;;;;;;;;;;12814170;23;20009;-82
2022/07/22 16:12:20;;;;;;;5.85;4.72;;;;;;;;;;12811830;23;20024;-82
2022/07/22 16:17:21;;;;;;;7.55;4.90;;;;;;;;;;12808632;23;20418;-81
2022/07/22 16:22:22;;;;;;;6.00;5.15;;;;;;;;;;12809187;23;20005;-81
2022/07/22 16:27:23;;;;;;;7.13;6.00;;;;;;;;;;12810697;23;20149;-82
2022/07/22 16:32:24;;;;;;;6.35;5.55;;;;;;;;;;12810978;23;20024;-82
2022/07/22 16:37:25;;;;;;;7.97;6.38;;;;;;;;;;12809559;23;20456;-82
2022/07/22 16:42:26;;;;;;;4.85;4.13;;;;;;;;;;12809592;23;20358;-80
2022/07/22 16:47:29;;;;;;;4.82;4.15;;;;;;;;;;12813439;23;20421;-81
2022/07/22 16:52:30;;;;;;;8.05;7.00;;;;;;;;;;12812227;23;20005;-79
2022/07/22 16:57:32;;;;;;;4.88;4.05;;;;;;;;;;12813219;23;20004;-80
2022/07/22 17:02:33;;;;;;;7.00;4.53;;;;;;;;;;12813994;23;20001;-82
2022/07/22 17:07:34;;;;;;;4.45;4.00;;;;;;;;;;12811456;23;20116;-81
2022/07/22 17:12:35;;;;;;;7.93;4.32;;;;;;;;;;12809769;23;20013;-81
2022/07/22 17:17:36;;;;;;;5.28;3.47;;;;;;;;;;12809855;23;20419;-82
2022/07/22 17:22:42;;;;;;;3.85;3.45;;;;;;;;;;12809292;23;20005;-82
2022/07/22 17:27:43;;;;;;;4.10;3.60;;;;;;;;;;12809892;23;20039;-80
2022/07/22 17:32:44;;;;;;;4.85;3.40;;;;;;;;;;12808980;23;20032;-80
2022/07/22 17:37:45;;;;;;;3.60;3.30;;;;;;;;;;12809005;23;20005;-81
2022/07/22 17:42:46;;;;;;;3.80;3.10;;;;;;;;;;12806162;23;20059;-81
2022/07/22 17:47:47;;;;;;;3.65;3.35;;;;;;;;;;12805958;23;20434;-82
2022/07/22 17:52:48;;;;;;;5.40;3.70;;;;;;;;;;12807713;23;20012;-81
2022/07/22 17:57:50;;;;;;;3.42;3.05;;;;;;;;;;12806187;23;20345;-81
2022/07/22 18:02:51;;;;;;;5.65;2.75;;;;;;;;;;12807375;23;20333;-80
2022/07/22 18:07:55;;;;;;;4.80;2.92;;;;;;;;;;12808356;23;20005;-81
2022/07/22 18:12:56;;;;;;;4.30;2.80;;;;;;;;;;12813719;23;20005;-81
2022/07/22 18:23:27;;;;;;;3.63;2.92;;;;;;;;;;12819105;23;20006;-81
2022/07/22 18:28:29;;;;;;;3.58;3.00;;;;;;;;;;12810876;23;20012;-80
2022/07/22 18:33:30;;;;;;;3.05;2.63;;;;;;;;;;12811889;23;20001;-80
2022/07/22 18:38:31;;;;;;;3.30;2.70;;;;;;;;;;12814039;23;20009;-81
2022/07/22 18:43:37;;;;;;;4.63;2.55;;;;;;;;;;12816815;23;20306;-81
2022/07/22 18:48:38;;;;;;;3.47;2.60;;;;;;;;;;12812368;23;20437;-82
2022/07/22 18:53:41;;;;;;;3.67;2.67;;;;;;;;;;12814290;23;20012;-81
2022/07/22 18:58:43;;;;;;;4.82;3.17;;;;;;;;;;12813898;23;20006;-82
2022/07/22 19:03:44;;;;;;;3.40;3.00;;;;;;;;;;12810520;23;20009;-81
2022/07/22 19:08:46;;;;;;;2.90;2.47;;;;;;;;;;12812567;23;20015;-81
2022/07/22 19:14:09;;;;;;;2.90;2.47;;;;;;;;;;12819286;23;20068;-80
2022/07/22 19:19:38;;;;;;;3.33;2.70;;;;;;;;;;12822291;23;20005;-81
